Time,TemperatureF,DewpointF,PressureIn,WindDirection,WindDirectionDegrees,WindSpeedMPH,WindSpeedGustMPH,Humidity,HourlyPrecipIn,Conditions,Clouds,dailyrainin,SoftwareType,DateUTC
2013-08-20 00:02:00,58.5,52.6,29.07,SSW,202,1.2,1.2,81,0.00,CLR,OVC,0.00,WeatherDisplay:10.37,2013-08-20 07:02:00,
2013-08-20 00:07:00,58.3,52.8,29.07,SW,225,1.2,1.2,82,0.00,CLR,OVC,0.00,WeatherDisplay:10.37,2013-08-20 07:07:00,
2013-08-20 00:12:00,58.1,52.6,29.07,WSW,248,3.5,3.5,82,0.00,CLR,OVC,0.00,WeatherDisplay:10.37,2013-08-20 07:12:00,
2013-08-20 00:17:00,57.9,52.8,29.07,WSW,248,2.3,2.3,83,0.00,CLR,OVC,0.00,WeatherDisplay:10.37,2013-08-20 07:17:00,
2013-08-20 00:22:00,57.9,52.8,29.08,SW,225,4.6,4.6,83,0.00,CLR,OVC,0.00,WeatherDisplay:10.37,2013-08-20 07:22:00,
2013-08-20 00:27:00,57.6,52.4,29.08,SW,225,3.5,3.5,83,0.00,CLR,OVC,0.00,WeatherDisplay:10.37,2013-08-20 07:27:00,
2013-08-20 00:32:00,57.2,52.1,29.08,West,270,1.2,1.2,83,0.00,CLR,OVC,0.00,WeatherDisplay:10.37,2013-08-20 07:32:00,
2013-08-20 00:37:00,56.8,51.7,29.08,WSW,248,2.3,2.3,83,0.00,CLR,OVC,0.00,WeatherDisplay:10.37,2013-08-20 07:37:00,
2013-08-20 00:42:00,56.5,51.4,29.08,West,270,2.3,2.3,83,0.00,CLR,OVC,0.00,WeatherDisplay:10.37,2013-08-20 07:42:00,
2013-08-20 00:47:00,56.3,50.9,29.08,SSE,158,1.2,1.2,82,0.00,CLR,OVC,0.00,WeatherDisplay:10.37,2013-08-20 07:47:00,
2013-08-20 00:52:00,56.1,50.7,29.07,NNE,22,0.0,0.0,82,0.00,CLR,OVC,0.00,WeatherDisplay:10.37,2013-08-20 07:52:00,
2013-08-20 00:57:00,55.9,50.5,29.07,NE,45,1.2,1.2,82,0.00,CLR,OVC,0.00,WeatherDisplay:10.37,2013-08-20 07:57:00,
2013-08-20 01:02:00,55.6,50.5,29.08,South,180,1.2,1.2,83,0.00,CLR,OVC,0.00,WeatherDisplay:10.37,2013-08-20 08:02:00,
2013-08-20 01:07:00,55.4,50.3,29.07,South,180,2.3,2.3,83,0.00,CLR,OVC,0.00,WeatherDisplay:10.37,2013-08-20 08:07:00,
2013-08-20 01:12:00,55.2,50.5,29.08,WNW,292,4.6,4.6,84,0.00,CLR,OVC,0.00,WeatherDisplay:10.37,2013-08-20 08:12:00,
2013-08-20 01:17:00,55.0,50.3,29.08,East,90,2.3,2.3,84,0.00,CLR,OVC,0.00,WeatherDisplay:10.37,2013-08-20 08:17:00,
2013-08-20 01:22:00,54.9,50.1,29.08,ESE,112,1.6,1.6,84,0.00,CLR,OVC,0.00,WeatherDisplay:10.37,2013-08-20 08:22:00,
2013-08-20 01:27:00,54.7,49.9,29.07,South,180,1.4,1.4,84,0.00,CLR,OVC,0.00,WeatherDisplay:10.37,2013-08-20 08:27:00,
2013-08-20 01:32:00,54.5,49.8,29.07,SE,135,1.2,1.2,84,0.00,CLR,OVC,0.00,WeatherDisplay:10.37,2013-08-20 08:32:00,
2013-08-20 01:37:00,54.3,49.6,29.07,SSE,158,1.2,1.2,84,0.00,CLR,OVC,0.00,WeatherDisplay:10.37,2013-08-20 08:37:00,
2013-08-20 01:42:00,54.1,49.1,29.08,SE,135,1.2,1.2,83,0.00,CLR,OVC,0.00,WeatherDisplay:10.37,2013-08-20 08:42:00,
2013-08-20 01:47:00,54.0,48.9,29.08,SSE,158,1.2,1.2,83,0.00,CLR,OVC,0.00,WeatherDisplay:10.37,2013-08-20 08:47:00,
2013-08-20 01:52:00,53.6,48.6,29.08,SW,225,0.0,0.0,83,0.00,CLR,OVC,0.00,WeatherDisplay:10.37,2013-08-20 08:52:00,
2013-08-20 01:57:00,53.4,48.4,29.08,WSW,248,1.2,1.2,83,0.00,CLR,OVC,0.00,WeatherDisplay:10.37,2013-08-20 08:57:00,
2013-08-20 02:02:00,53.2,48.5,29.08,WSW,248,0.5,0.5,84,0.00,CLR,OVC,0.00,WeatherDisplay:10.37,2013-08-20 09:02:00,
2013-08-20 02:07:00,53.2,48.5,29.08,SW,225,1.2,1.2,84,0.00,CLR,OVC,0.00,WeatherDisplay:10.37,2013-08-20 09:07:00,
2013-08-20 02:12:00,53.1,48.4,29.08,West,270,0.2,0.2,84,0.00,CLR,OVC,0.00,WeatherDisplay:10.37,2013-08-20 09:12:00,
2013-08-20 02:17:00,52.9,48.2,29.07,SSW,202,0.0,0.0,84,0.00,CLR,OVC,0.00,WeatherDisplay:10.37,2013-08-20 09:17:00,
2013-08-20 02:22:00,52.9,48.5,29.07,WSW,248,1.2,1.2,85,0.00,CLR,OVC,0.00,WeatherDisplay:10.37,2013-08-20 09:22:00,
2013-08-20 02:27:00,52.7,48.3,29.07,WSW,248,0.5,0.5,85,0.00,CLR,OVC,0.00,WeatherDisplay:10.37,2013-08-20 09:27:00,
2013-08-20 02:32:00,52.5,48.5,29.07,SW,225,1.2,1.2,86,0.00,CLR,OVC,0.00,WeatherDisplay:10.37,2013-08-20 09:32:00,
2013-08-20 02:37:00,52.5,48.1,29.08,SW,225,1.2,1.2,85,0.00,CLR,OVC,0.00,WeatherDisplay:10.37,2013-08-20 09:37:00,
2013-08-20 02:42:00,52.5,48.1,29.08,SSE,158,1.2,1.2,85,0.00,CLR,OVC,0.00,WeatherDisplay:10.37,2013-08-20 09:42:00,
2013-08-20 02:47:00,52.3,48.3,29.08,WSW,248,1.2,1.2,86,0.00,CLR,OVC,0.00,WeatherDisplay:10.37,2013-08-20 09:47:00,
2013-08-20 02:52:00,52.2,48.1,29.08,West,270,0.5,0.5,86,0.00,CLR,OVC,0.00,WeatherDisplay:10.37,2013-08-20 09:52:00,
2013-08-20 02:57:00,52.2,48.1,29.08,SSW,202,0.0,0.0,86,0.00,CLR,OVC,0.00,WeatherDisplay:10.37,2013-08-20 09:57:00,
2013-08-20 03:02:00,52.2,48.1,29.08,West,270,2.3,0.0,86,0.00,CLR,OVC,0.00,WeatherDisplay:10.37,2013-08-20 10:02:00,
2013-08-20 03:07:00,52.2,48.1,29.08,WSW,248,1.2,0.0,86,0.00,CLR,OVC,0.00,WeatherDisplay:10.37,2013-08-20 10:07:00,
2013-08-20 03:12:00,52.0,47.9,29.08,WSW,248,1.2,1.2,86,0.00,CLR,OVC,0.00,WeatherDisplay:10.37,2013-08-20 10:12:00,
2013-08-20 03:17:00,52.0,47.9,29.08,West,270,0.0,0.0,86,0.00,CLR,OVC,0.00,WeatherDisplay:10.37,2013-08-20 10:17:00,
2013-08-20 03:22:00,51.8,47.7,29.08,SSW,202,0.0,0.0,86,0.00,CLR,OVC,0.00,WeatherDisplay:10.37,2013-08-20 10:22:00,
2013-08-20 03:27:00,51.6,47.6,29.08,NW,315,0.0,0.0,86,0.00,CLR,OVC,0.00,WeatherDisplay:10.37,2013-08-20 10:27:00,
2013-08-20 03:32:00,51.4,47.4,29.08,NW,315,0.0,0.0,86,0.00,CLR,OVC,0.00,WeatherDisplay:10.37,2013-08-20 10:32:00,
2013-08-20 03:37:00,51.4,47.4,29.08,West,270,0.0,0.0,86,0.00,CLR,OVC,0.00,WeatherDisplay:10.37,2013-08-20 10:37:00,
2013-08-20 03:42:00,51.3,47.2,29.08,WSW,248,0.0,0.0,86,0.00,CLR,OVC,0.00,WeatherDisplay:10.37,2013-08-20 10:42:00,
2013-08-20 03:47:00,51.3,47.2,29.08,West,270,0.0,0.0,86,0.00,CLR,OVC,0.00,WeatherDisplay:10.37,2013-08-20 10:47:00,
2013-08-20 03:52:00,51.1,47.0,29.08,WSW,248,0.2,0.2,86,0.00,CLR,OVC,0.00,WeatherDisplay:10.37,2013-08-20 10:52:00,
2013-08-20 03:57:00,50.9,46.9,29.08,WSW,248,0.0,0.0,86,0.00,CLR,OVC,0.00,WeatherDisplay:10.37,2013-08-20 10:57:00,
2013-08-20 04:02:00,50.9,47.2,29.08,NNW,338,0.0,0.0,87,0.00,CLR,OVC,0.00,WeatherDisplay:10.37,2013-08-20 11:02:00,
2013-08-20 04:07:00,50.9,47.2,29.08,ENE,68,1.2,1.2,87,0.00,CLR,OVC,0.00,WeatherDisplay:10.37,2013-08-20 11:07:00,
2013-08-20 04:12:00,50.9,47.2,29.08,ENE,68,1.2,1.2,87,0.00,CLR,OVC,0.00,WeatherDisplay:10.37,2013-08-20 11:12:00,
2013-08-20 04:17:00,50.9,47.5,29.08,WNW,292,2.3,2.3,88,0.00,CLR,OVC,0.00,WeatherDisplay:10.37,2013-08-20 11:17:00,
2013-08-20 04:22:00,51.1,47.6,29.08,North,0,1.2,1.2,88,0.00,CLR,OVC,0.00,WeatherDisplay:10.37,2013-08-20 11:22:00,
2013-08-20 04:27:00,50.9,47.5,29.08,East,90,0.9,0.9,88,0.00,CLR,OVC,0.00,WeatherDisplay:10.37,2013-08-20 11:27:00,
2013-08-20 04:32:00,50.9,47.2,29.08,East,90,0.2,0.2,87,0.00,CLR,OVC,0.00,WeatherDisplay:10.37,2013-08-20 11:32:00,
2013-08-20 04:37:00,50.7,47.0,29.08,NNE,22,0.0,0.0,87,0.00,CLR,OVC,0.00,WeatherDisplay:10.37,2013-08-20 11:37:00,
2013-08-20 04:42:00,50.7,46.7,29.08,NNE,22,0.0,0.0,86,0.00,CLR,OVC,0.00,WeatherDisplay:10.37,2013-08-20 11:42:00,
2013-08-20 04:47:00,50.5,46.5,29.08,NNE,22,0.0,0.0,86,0.00,CLR,OVC,0.00,WeatherDisplay:10.37,2013-08-20 11:47:00,
2013-08-20 04:53:00,50.4,46.3,29.08,NNE,22,0.2,0.2,86,0.00,CLR,OVC,0.00,WeatherDisplay:10.37,2013-08-20 11:53:00,
2013-08-20 04:58:00,50.4,46.6,29.08,North,0,1.2,1.2,87,0.00,CLR,OVC,0.00,WeatherDisplay:10.37,2013-08-20 11:58:00,
2013-08-20 05:03:00,50.4,46.9,29.08,ESE,112,1.2,1.2,88,0.00,CLR,OVC,0.00,WeatherDisplay:10.37,2013-08-20 12:03:00,
2013-08-20 05:08:00,50.4,46.6,29.08,ENE,68,1.2,1.2,87,0.00,CLR,OVC,0.00,WeatherDisplay:10.37,2013-08-20 12:08:00,
2013-08-20 05:13:00,50.4,46.9,29.08,ENE,68,1.8,1.8,88,0.00,CLR,OVC,0.00,WeatherDisplay:10.37,2013-08-20 12:13:00,
2013-08-20 05:18:00,50.5,46.8,29.08,East,90,0.0,1.2,87,0.00,CLR,OVC,0.00,WeatherDisplay:10.37,2013-08-20 12:18:00,
2013-08-20 05:23:00,50.4,46.6,29.09,ENE,68,1.2,1.2,87,0.00,CLR,OVC,0.00,WeatherDisplay:10.37,2013-08-20 12:23:00,
2013-08-20 05:28:00,50.4,46.6,29.09,West,270,1.2,1.2,87,0.00,CLR,OVC,0.00,WeatherDisplay:10.37,2013-08-20 12:28:00,
2013-08-20 05:33:00,50.5,46.8,29.09,WSW,248,1.2,1.2,87,0.00,CLR,OVC,0.00,WeatherDisplay:10.37,2013-08-20 12:33:00,
2013-08-20 05:38:00,50.5,46.8,29.09,SW,225,1.2,1.2,87,0.00,CLR,OVC,0.00,WeatherDisplay:10.37,2013-08-20 12:38:00,
2013-08-20 05:43:00,50.5,46.8,29.08,North,0,1.2,1.2,87,0.00,CLR,OVC,0.00,WeatherDisplay:10.37,2013-08-20 12:43:00,
2013-08-20 05:48:00,50.5,46.8,29.09,NNE,22,0.2,0.2,87,0.00,CLR,OVC,0.00,WeatherDisplay:10.37,2013-08-20 12:48:00,
2013-08-20 05:53:00,50.4,46.6,29.09,North,0,1.2,0.0,87,0.00,CLR,OVC,0.00,WeatherDisplay:10.37,2013-08-20 12:53:00,
2013-08-20 05:58:00,50.4,46.6,29.09,NNE,22,1.2,0.0,87,0.00,CLR,OVC,0.00,WeatherDisplay:10.37,2013-08-20 12:58:00,
2013-08-20 06:03:00,50.2,46.5,29.09,NW,315,0.7,0.7,87,0.00,CLR,OVC,0.00,WeatherDisplay:10.37,2013-08-20 13:03:00,
2013-08-20 06:08:00,50.2,46.5,29.09,WNW,292,0.0,0.0,87,0.00,CLR,OVC,0.00,WeatherDisplay:10.37,2013-08-20 13:08:00,
2013-08-20 06:13:00,50.0,46.3,29.09,NNW,338,0.9,0.9,87,0.00,CLR,OVC,0.00,WeatherDisplay:10.37,2013-08-20 13:13:00,
2013-08-20 06:18:00,50.2,46.5,29.09,NW,315,1.2,1.2,87,0.00,CLR,OVC,0.00,WeatherDisplay:10.37,2013-08-20 13:18:00,
2013-08-20 06:23:00,50.4,46.6,29.09,NNW,338,0.0,0.5,87,0.00,CLR,OVC,0.00,WeatherDisplay:10.37,2013-08-20 13:23:00,
2013-08-20 06:28:00,50.4,46.6,29.09,West,270,3.1,3.1,87,0.00,CLR,OVC,0.00,WeatherDisplay:10.37,2013-08-20 13:28:00,
2013-08-20 06:33:00,50.4,46.6,29.09,West,270,1.2,1.2,87,0.00,CLR,OVC,0.00,WeatherDisplay:10.37,2013-08-20 13:33:00,
2013-08-20 06:38:00,50.5,46.8,29.09,NNW,338,0.5,0.5,87,0.00,CLR,OVC,0.00,WeatherDisplay:10.37,2013-08-20 13:38:00,
2013-08-20 06:43:00,50.5,46.8,29.09,NE,45,1.2,1.2,87,0.00,CLR,OVC,0.00,WeatherDisplay:10.37,2013-08-20 13:43:00,
2013-08-20 06:48:00,50.7,47.3,29.09,WNW,292,0.0,0.0,88,0.00,CLR,OVC,0.00,WeatherDisplay:10.37,2013-08-20 13:48:00,
2013-08-20 06:53:00,50.7,47.3,29.08,WNW,292,0.0,0.0,88,0.00,CLR,OVC,0.00,WeatherDisplay:10.37,2013-08-20 13:53:00,
2013-08-20 06:58:00,50.9,47.5,29.08,West,270,1.2,0.0,88,0.00,CLR,OVC,0.00,WeatherDisplay:10.37,2013-08-20 13:58:00,
2013-08-20 07:03:00,51.3,47.8,29.08,WNW,292,2.3,0.0,88,0.00,CLR,OVC,0.00,WeatherDisplay:10.37,2013-08-20 14:03:00,
2013-08-20 07:08:00,51.6,48.2,29.08,WNW,292,0.0,0.0,88,0.00,CLR,OVC,0.00,WeatherDisplay:10.37,2013-08-20 14:08:00,
2013-08-20 07:13:00,51.8,48.1,29.08,West,270,0.0,0.7,87,0.00,CLR,OVC,0.00,WeatherDisplay:10.37,2013-08-20 14:13:00,
2013-08-20 07:18:00,51.8,48.1,29.08,West,270,0.0,0.0,87,0.00,CLR,OVC,0.00,WeatherDisplay:10.37,2013-08-20 14:18:00,
2013-08-20 07:23:00,51.8,48.1,29.08,ENE,68,1.2,1.2,87,0.00,CLR,OVC,0.00,WeatherDisplay:10.37,2013-08-20 14:23:00,
2013-08-20 07:28:00,51.8,48.1,29.09,ENE,68,1.2,1.2,87,0.00,CLR,OVC,0.00,WeatherDisplay:10.37,2013-08-20 14:28:00,
2013-08-20 07:33:00,51.8,48.1,29.09,ESE,112,1.2,1.2,87,0.00,CLR,OVC,0.00,WeatherDisplay:10.37,2013-08-20 14:33:00,
2013-08-20 07:38:00,52.2,48.4,29.09,ESE,112,0.0,0.0,87,0.00,CLR,OVC,0.00,WeatherDisplay:10.37,2013-08-20 14:38:00,
2013-08-20 07:43:00,52.5,48.8,29.09,ESE,112,0.0,0.0,87,0.00,CLR,OVC,0.00,WeatherDisplay:10.37,2013-08-20 14:43:00,
2013-08-20 07:48:00,53.4,50.0,29.09,SSW,202,0.0,0.5,88,0.00,CLR,OVC,0.00,WeatherDisplay:10.37,2013-08-20 14:48:00,
2013-08-20 07:53:00,54.5,50.7,29.09,West,270,1.2,1.2,87,0.00,CLR,OVC,0.00,WeatherDisplay:10.37,2013-08-20 14:53:00,
2013-08-20 07:58:00,55.0,50.9,29.09,WSW,248,1.2,1.2,86,0.00,CLR,OVC,0.00,WeatherDisplay:10.37,2013-08-20 14:58:00,
2013-08-20 08:03:00,55.6,51.1,29.10,SSW,202,0.7,0.7,85,0.00,CLR,OVC,0.00,WeatherDisplay:10.37,2013-08-20 15:03:00,
2013-08-20 08:08:00,56.3,51.5,29.09,WSW,248,3.5,3.5,84,0.00,CLR,OVC,0.00,WeatherDisplay:10.37,2013-08-20 15:08:00,
2013-08-20 08:13:00,56.5,51.7,29.09,West,270,3.5,3.5,84,0.00,CLR,OVC,0.00,WeatherDisplay:10.37,2013-08-20 15:13:00,
2013-08-20 08:18:00,56.8,52.1,29.10,WSW,248,1.2,1.2,84,0.00,CLR,OVC,0.00,WeatherDisplay:10.37,2013-08-20 15:18:00,
2013-08-20 08:23:00,57.4,52.3,29.10,SW,225,2.3,2.3,83,0.00,CLR,OVC,0.00,WeatherDisplay:10.37,2013-08-20 15:23:00,
2013-08-20 08:28:00,57.7,52.3,29.10,West,270,2.3,2.3,82,0.00,CLR,OVC,0.00,WeatherDisplay:10.37,2013-08-20 15:28:00,
2013-08-20 08:33:00,57.9,52.5,29.10,West,270,2.3,2.3,82,0.00,CLR,OVC,0.00,WeatherDisplay:10.37,2013-08-20 15:33:00,
2013-08-20 08:38:00,58.1,52.3,29.10,WSW,248,2.3,2.3,81,0.00,CLR,OVC,0.00,WeatherDisplay:10.37,2013-08-20 15:38:00,
2013-08-20 08:43:00,59.0,53.2,29.10,WSW,248,2.3,2.3,81,0.00,CLR,OVC,0.00,WeatherDisplay:10.37,2013-08-20 15:43:00,
2013-08-20 08:48:00,60.1,53.5,29.10,West,270,2.3,2.3,79,0.00,CLR,OVC,0.00,WeatherDisplay:10.37,2013-08-20 15:48:00,
2013-08-20 08:53:00,61.0,54.1,29.10,SW,225,2.3,2.3,78,0.00,CLR,OVC,0.00,WeatherDisplay:10.37,2013-08-20 15:53:00,
2013-08-20 08:58:00,62.6,55.3,29.09,WSW,248,2.3,0.0,77,0.00,CLR,OVC,0.00,WeatherDisplay:10.37,2013-08-20 15:58:00,
2013-08-20 09:03:00,65.3,57.5,29.09,NW,315,2.3,2.3,76,0.00,CLR,OVC,0.00,WeatherDisplay:10.37,2013-08-20 16:03:00,
2013-08-20 09:08:00,67.5,58.1,29.09,West,270,2.3,2.3,72,0.00,CLR,OVC,0.00,WeatherDisplay:10.37,2013-08-20 16:08:00,
2013-08-20 09:13:00,67.6,56.7,29.09,WSW,248,1.2,1.2,68,0.00,CLR,OVC,0.00,WeatherDisplay:10.37,2013-08-20 16:13:00,
2013-08-20 09:18:00,68.2,56.8,29.09,WSW,248,3.5,3.5,67,0.00,CLR,OVC,0.00,WeatherDisplay:10.37,2013-08-20 16:18:00,
2013-08-20 09:23:00,68.7,57.3,29.09,SSW,202,2.4,2.4,67,0.00,CLR,OVC,0.00,WeatherDisplay:10.37,2013-08-20 16:23:00,
2013-08-20 09:28:00,69.3,57.4,29.09,SW,225,1.2,1.2,66,0.00,CLR,OVC,0.00,WeatherDisplay:10.37,2013-08-20 16:28:00,
2013-08-20 09:33:00,70.7,58.4,29.09,WSW,248,2.0,2.0,65,0.00,CLR,OVC,0.00,WeatherDisplay:10.37,2013-08-20 16:33:00,
2013-08-20 09:38:00,71.2,57.5,29.09,WSW,248,4.6,4.6,62,0.00,CLR,OVC,0.00,WeatherDisplay:10.37,2013-08-20 16:38:00,
2013-08-20 09:43:00,70.7,56.1,29.09,SW,225,4.6,4.6,60,0.00,CLR,OVC,0.00,WeatherDisplay:10.37,2013-08-20 16:43:00,
2013-08-20 09:48:00,70.3,56.2,29.09,WSW,248,3.5,3.5,61,0.00,CLR,OVC,0.00,WeatherDisplay:10.37,2013-08-20 16:48:00,
2013-08-20 09:53:00,70.3,56.2,29.09,SSW,202,2.6,2.6,61,0.00,CLR,OVC,0.00,WeatherDisplay:10.37,2013-08-20 16:53:00,
2013-08-20 09:58:00,71.2,57.5,29.09,South,180,2.3,2.3,62,0.00,CLR,OVC,0.00,WeatherDisplay:10.37,2013-08-20 16:58:00,
2013-08-20 10:03:00,72.1,58.4,29.10,SSW,202,2.3,2.3,62,0.00,CLR,OVC,0.00,WeatherDisplay:10.37,2013-08-20 17:03:00,
2013-08-20 10:08:00,72.3,57.2,29.10,SW,225,4.6,4.6,59,0.00,CLR,OVC,0.00,WeatherDisplay:10.37,2013-08-20 17:08:00,
2013-08-20 10:13:00,71.8,57.1,29.09,West,270,2.3,2.3,60,0.00,CLR,OVC,0.00,WeatherDisplay:10.37,2013-08-20 17:13:00,
2013-08-20 10:18:00,71.6,56.0,29.09,NW,315,5.2,5.2,58,0.00,CLR,OVC,0.00,WeatherDisplay:10.37,2013-08-20 17:18:00,
2013-08-20 10:23:00,70.7,55.2,29.09,NW,315,4.6,4.6,58,0.00,CLR,OVC,0.00,WeatherDisplay:10.37,2013-08-20 17:23:00,
2013-08-20 10:28:00,69.4,54.9,29.09,WNW,292,3.5,3.5,60,0.00,CLR,OVC,0.00,WeatherDisplay:10.37,2013-08-20 17:28:00,
2013-08-20 10:33:00,69.1,55.1,29.09,WNW,292,3.5,3.5,61,0.00,CLR,OVC,0.00,WeatherDisplay:10.37,2013-08-20 17:33:00,
2013-08-20 10:38:00,69.1,55.1,29.09,NW,315,2.3,2.3,61,0.00,CLR,OVC,0.00,WeatherDisplay:10.37,2013-08-20 17:38:00,
2013-08-20 10:43:00,69.3,55.7,29.09,SW,225,2.3,2.3,62,0.00,CLR,OVC,0.00,WeatherDisplay:10.37,2013-08-20 17:43:00,
2013-08-20 10:48:00,69.8,55.7,29.09,SSW,202,2.4,2.4,61,0.00,CLR,OVC,0.00,WeatherDisplay:10.37,2013-08-20 17:48:00,
2013-08-20 10:54:00,70.2,55.6,29.09,WSW,248,2.3,2.3,60,0.00,CLR,OVC,0.00,WeatherDisplay:10.37,2013-08-20 17:54:00,
2013-08-20 10:59:00,70.2,55.6,29.09,SW,225,3.1,3.1,60,0.00,CLR,OVC,0.00,WeatherDisplay:10.37,2013-08-20 17:59:00,
2013-08-20 11:04:00,70.2,55.2,29.08,WNW,292,6.9,6.9,59,0.00,CLR,OVC,0.00,WeatherDisplay:10.37,2013-08-20 18:04:00,
2013-08-20 11:09:00,69.8,55.7,29.09,WSW,248,2.3,2.3,61,0.00,CLR,OVC,0.00,WeatherDisplay:10.37,2013-08-20 18:09:00,
2013-08-20 11:14:00,69.6,55.1,29.09,SW,225,4.6,4.6,60,0.00,CLR,OVC,0.00,WeatherDisplay:10.37,2013-08-20 18:14:00,
2013-08-20 11:19:00,69.6,55.1,29.08,West,270,4.6,4.6,60,0.00,CLR,OVC,0.00,WeatherDisplay:10.37,2013-08-20 18:19:00,
2013-08-20 11:24:00,69.8,55.3,29.08,SSW,202,4.6,4.6,60,0.00,CLR,OVC,0.00,WeatherDisplay:10.37,2013-08-20 18:24:00,
2013-08-20 11:29:00,70.0,55.9,29.08,WSW,248,4.6,4.6,61,0.00,CLR,OVC,0.00,WeatherDisplay:10.37,2013-08-20 18:29:00,
2013-08-20 11:34:00,70.3,55.3,29.09,WNW,292,6.2,6.2,59,0.00,CLR,OVC,0.00,WeatherDisplay:10.37,2013-08-20 18:34:00,
2013-08-20 11:39:00,70.7,55.7,29.09,West,270,4.0,4.0,59,0.00,CLR,OVC,0.00,WeatherDisplay:10.37,2013-08-20 18:39:00,
2013-08-20 11:44:00,70.7,55.7,29.08,SW,225,4.6,4.6,59,0.00,CLR,OVC,0.00,WeatherDisplay:10.37,2013-08-20 18:44:00,
2013-08-20 11:49:00,70.9,55.8,29.08,WNW,292,5.8,5.8,59,0.00,CLR,OVC,0.00,WeatherDisplay:10.37,2013-08-20 18:49:00,
2013-08-20 11:54:00,71.2,57.1,29.08,SSW,202,2.3,2.3,61,0.00,CLR,OVC,0.00,WeatherDisplay:10.37,2013-08-20 18:54:00,
2013-08-20 11:59:00,72.1,57.0,29.08,WSW,248,2.3,2.3,59,0.00,CLR,OVC,0.00,WeatherDisplay:10.37,2013-08-20 18:59:00,
2013-08-20 12:04:00,72.3,56.2,29.08,WNW,292,4.6,4.6,57,0.00,CLR,OVC,0.00,WeatherDisplay:10.37,2013-08-20 19:04:00,
2013-08-20 12:09:00,72.3,56.2,29.08,West,270,4.6,4.6,57,0.00,CLR,OVC,0.00,WeatherDisplay:10.37,2013-08-20 19:09:00,
2013-08-20 12:14:00,73.2,57.1,29.07,West,270,4.0,4.0,57,0.00,CLR,OVC,0.00,WeatherDisplay:10.37,2013-08-20 19:14:00,
2013-08-20 12:19:00,73.9,57.3,29.07,SW,225,4.6,4.6,56,0.00,CLR,OVC,0.00,WeatherDisplay:10.37,2013-08-20 19:19:00,
2013-08-20 12:24:00,75.0,57.2,29.07,WSW,248,2.6,2.6,54,0.00,CLR,OVC,0.00,WeatherDisplay:10.37,2013-08-20 19:24:00,
2013-08-20 12:29:00,75.9,57.0,29.07,West,270,4.0,4.0,52,0.00,CLR,OVC,0.00,WeatherDisplay:10.37,2013-08-20 19:29:00,
2013-08-20 12:34:00,75.9,57.0,29.07,NW,315,3.5,3.5,52,0.00,CLR,OVC,0.00,WeatherDisplay:10.37,2013-08-20 19:34:00,
2013-08-20 12:39:00,76.3,56.8,29.07,West,270,4.6,4.6,51,0.00,CLR,OVC,0.00,WeatherDisplay:10.37,2013-08-20 19:39:00,
2013-08-20 12:44:00,75.9,55.9,29.07,West,270,4.6,4.6,50,0.00,CLR,OVC,0.00,WeatherDisplay:10.37,2013-08-20 19:44:00,
2013-08-20 12:49:00,76.6,57.2,29.07,West,270,2.3,2.3,51,0.00,CLR,OVC,0.00,WeatherDisplay:10.37,2013-08-20 19:49:00,
2013-08-20 12:54:00,77.5,57.4,29.06,West,270,3.5,3.5,50,0.00,CLR,OVC,0.00,WeatherDisplay:10.37,2013-08-20 19:54:00,
2013-08-20 12:59:00,78.8,57.4,29.06,SSW,202,2.4,2.4,48,0.00,CLR,OVC,0.00,WeatherDisplay:10.37,2013-08-20 19:59:00,
2013-08-20 13:04:00,79.5,58.1,29.06,WSW,248,2.3,2.3,48,0.00,CLR,OVC,0.00,WeatherDisplay:10.37,2013-08-20 20:04:00,
2013-08-20 13:09:00,79.9,55.4,29.06,West,270,4.6,5.6,43,0.00,CLR,OVC,0.00,WeatherDisplay:10.37,2013-08-20 20:09:00,
2013-08-20 13:14:00,79.5,55.1,29.06,NW,315,4.0,4.0,43,0.00,CLR,OVC,0.00,WeatherDisplay:10.37,2013-08-20 20:14:00,
2013-08-20 13:19:00,79.9,56.0,29.06,WSW,248,2.3,2.3,44,0.00,CLR,OVC,0.00,WeatherDisplay:10.37,2013-08-20 20:19:00,
2013-08-20 13:24:00,80.6,56.7,29.06,SE,135,3.5,3.5,44,0.00,CLR,OVC,0.00,WeatherDisplay:10.37,2013-08-20 20:24:00,
2013-08-20 13:29:00,81.0,54.4,29.06,SW,225,3.5,3.5,40,0.00,CLR,OVC,0.00,WeatherDisplay:10.37,2013-08-20 20:29:00,
2013-08-20 13:34:00,80.2,53.7,29.05,SW,225,4.6,4.6,40,0.00,CLR,OVC,0.00,WeatherDisplay:10.37,2013-08-20 20:34:00,
2013-08-20 13:39:00,79.9,52.7,29.05,WNW,292,4.6,4.6,39,0.00,CLR,OVC,0.00,WeatherDisplay:10.37,2013-08-20 20:39:00,
2013-08-20 13:44:00,79.7,53.2,29.05,North,0,5.8,5.8,40,0.00,CLR,OVC,0.00,WeatherDisplay:10.37,2013-08-20 20:44:00,
2013-08-20 13:49:00,80.1,53.6,29.05,SSE,158,4.6,4.6,40,0.00,CLR,OVC,0.00,WeatherDisplay:10.37,2013-08-20 20:49:00,
2013-08-20 13:54:00,80.8,53.5,29.05,WSW,248,4.6,4.6,39,0.00,CLR,OVC,0.00,WeatherDisplay:10.37,2013-08-20 20:54:00,
2013-08-20 13:59:00,81.1,53.8,29.05,WSW,248,5.8,5.8,39,0.00,CLR,OVC,0.00,WeatherDisplay:10.37,2013-08-20 20:59:00,
2013-08-20 14:04:00,80.6,53.4,29.05,West,270,5.8,5.8,39,0.00,CLR,OVC,0.00,WeatherDisplay:10.37,2013-08-20 21:04:00,
2013-08-20 14:09:00,81.0,53.7,29.05,West,270,5.2,5.2,39,0.00,CLR,OVC,0.00,WeatherDisplay:10.37,2013-08-20 21:09:00,
2013-08-20 14:14:00,81.3,54.7,29.05,SW,225,5.8,5.8,40,0.00,CLR,OVC,0.00,WeatherDisplay:10.37,2013-08-20 21:14:00,
2013-08-20 14:19:00,81.5,54.2,29.04,SSW,202,5.8,5.8,39,0.00,CLR,OVC,0.00,WeatherDisplay:10.37,2013-08-20 21:19:00,
2013-08-20 14:24:00,82.0,54.6,29.04,SE,135,3.5,3.5,39,0.00,CLR,OVC,0.00,WeatherDisplay:10.37,2013-08-20 21:24:00,
2013-08-20 14:29:00,82.6,54.4,29.04,SW,225,2.9,2.9,38,0.00,CLR,OVC,0.00,WeatherDisplay:10.37,2013-08-20 21:29:00,
2013-08-20 14:34:00,82.8,52.3,29.04,NW,315,4.6,4.6,35,0.00,CLR,OVC,0.00,WeatherDisplay:10.37,2013-08-20 21:34:00,
2013-08-20 14:39:00,82.8,52.3,29.04,SE,135,3.5,3.5,35,0.00,CLR,OVC,0.00,WeatherDisplay:10.37,2013-08-20 21:39:00,
2013-08-20 14:44:00,82.6,52.2,29.04,SW,225,4.6,4.6,35,0.00,CLR,OVC,0.00,WeatherDisplay:10.37,2013-08-20 21:44:00,
2013-08-20 14:49:00,83.3,54.3,29.04,NNE,22,2.4,2.4,37,0.00,CLR,OVC,0.00,WeatherDisplay:10.37,2013-08-20 21:49:00,
2013-08-20 14:54:00,84.0,53.4,29.04,SW,225,4.3,4.3,35,0.00,CLR,OVC,0.00,WeatherDisplay:10.37,2013-08-20 21:54:00,
2013-08-20 14:59:00,83.5,52.9,29.03,West,270,3.1,3.1,35,0.00,CLR,OVC,0.00,WeatherDisplay:10.37,2013-08-20 21:59:00,
2013-08-20 15:04:00,83.5,52.9,29.04,SSE,158,5.8,5.8,35,0.00,CLR,OVC,0.00,WeatherDisplay:10.37,2013-08-20 22:04:00,
2013-08-20 15:09:00,83.7,52.3,29.03,West,270,3.5,3.5,34,0.00,CLR,OVC,0.00,WeatherDisplay:10.37,2013-08-20 22:09:00,
2013-08-20 15:14:00,84.2,52.8,29.03,West,270,6.9,6.9,34,0.00,CLR,OVC,0.00,WeatherDisplay:10.37,2013-08-20 22:14:00,
2013-08-20 15:19:00,83.7,53.1,29.03,ESE,112,4.6,4.6,35,0.00,CLR,OVC,0.00,WeatherDisplay:10.37,2013-08-20 22:19:00,
2013-08-20 15:24:00,83.8,54.8,29.03,ENE,68,2.9,2.9,37,0.00,CLR,OVC,0.00,WeatherDisplay:10.37,2013-08-20 22:24:00,
2013-08-20 15:29:00,84.9,55.0,29.03,SE,135,2.4,2.4,36,0.00,CLR,OVC,0.00,WeatherDisplay:10.37,2013-08-20 22:29:00,
2013-08-20 15:34:00,84.6,53.1,29.03,NW,315,4.7,4.7,34,0.00,CLR,OVC,0.00,WeatherDisplay:10.37,2013-08-20 22:34:00,
2013-08-20 15:39:00,84.4,52.9,29.03,West,270,4.6,4.6,34,0.00,CLR,OVC,0.00,WeatherDisplay:10.37,2013-08-20 22:39:00,
2013-08-20 15:44:00,84.6,53.9,29.03,South,180,4.6,4.6,35,0.00,CLR,OVC,0.00,WeatherDisplay:10.37,2013-08-20 22:44:00,
2013-08-20 15:49:00,84.6,53.9,29.02,SSE,158,3.5,3.5,35,0.00,CLR,OVC,0.00,WeatherDisplay:10.37,2013-08-20 22:49:00,
2013-08-20 15:54:00,85.3,54.5,29.02,SE,135,2.9,2.9,35,0.00,CLR,OVC,0.00,WeatherDisplay:10.37,2013-08-20 22:54:00,
2013-08-20 15:59:00,85.6,53.2,29.02,South,180,3.5,4.0,33,0.00,CLR,OVC,0.00,WeatherDisplay:10.37,2013-08-20 22:59:00,
2013-08-20 16:04:00,85.5,52.2,29.02,WNW,292,9.2,9.2,32,0.00,CLR,OVC,0.00,WeatherDisplay:10.37,2013-08-20 23:04:00,
2013-08-20 16:09:00,84.4,52.9,29.02,WSW,248,4.6,4.6,34,0.00,CLR,OVC,0.00,WeatherDisplay:10.37,2013-08-20 23:09:00,
2013-08-20 16:14:00,84.9,54.2,29.02,SSW,202,3.5,3.5,35,0.00,CLR,OVC,0.00,WeatherDisplay:10.37,2013-08-20 23:14:00,
2013-08-20 16:19:00,86.0,54.4,29.01,North,0,2.3,2.9,34,0.00,CLR,OVC,0.00,WeatherDisplay:10.37,2013-08-20 23:19:00,
2013-08-20 16:25:00,87.1,54.5,29.01,West,270,3.3,3.3,33,0.00,CLR,OVC,0.00,WeatherDisplay:10.37,2013-08-20 23:25:00,
2013-08-20 16:30:00,86.5,53.2,29.01,North,0,6.9,6.9,32,0.00,CLR,OVC,0.00,WeatherDisplay:10.37,2013-08-20 23:30:00,
2013-08-20 16:35:00,86.4,53.9,29.01,West,270,2.3,2.3,33,0.00,CLR,OVC,0.00,WeatherDisplay:10.37,2013-08-20 23:35:00,
2013-08-20 16:40:00,86.9,54.3,29.01,SSE,158,3.5,3.5,33,0.00,CLR,OVC,0.00,WeatherDisplay:10.37,2013-08-20 23:40:00,
2013-08-20 16:45:00,87.8,53.4,29.01,NW,315,4.9,4.9,31,0.00,CLR,OVC,0.00,WeatherDisplay:10.37,2013-08-20 23:45:00,
2013-08-20 16:50:00,87.4,53.1,29.01,WSW,248,3.6,3.6,31,0.00,CLR,OVC,0.00,WeatherDisplay:10.37,2013-08-20 23:50:00,
2013-08-20 16:55:00,87.1,53.6,29.01,SW,225,3.5,3.5,32,0.00,CLR,OVC,0.00,WeatherDisplay:10.37,2013-08-20 23:55:00,
2013-08-20 17:00:00,87.6,54.1,29.01,NW,315,2.4,2.4,32,0.00,CLR,OVC,0.00,WeatherDisplay:10.37,2013-08-21 00:00:00,
2013-08-20 17:05:00,87.3,52.9,29.00,ESE,112,5.4,5.4,31,0.00,CLR,OVC,0.00,WeatherDisplay:10.37,2013-08-21 00:05:00,
2013-08-20 17:10:00,86.4,53.0,29.00,ESE,112,2.3,3.3,32,0.00,CLR,OVC,0.00,WeatherDisplay:10.37,2013-08-21 00:10:00,
2013-08-20 17:15:00,87.1,53.6,29.00,SW,225,4.0,4.0,32,0.00,CLR,OVC,0.00,WeatherDisplay:10.37,2013-08-21 00:15:00,
2013-08-20 17:20:00,87.8,53.4,29.00,WSW,248,4.9,4.9,31,0.00,CLR,OVC,0.00,WeatherDisplay:10.37,2013-08-21 00:20:00,
2013-08-20 17:25:00,87.3,52.9,29.00,SW,225,4.6,4.6,31,0.00,CLR,OVC,0.00,WeatherDisplay:10.37,2013-08-21 00:25:00,
2013-08-20 17:30:00,87.8,54.3,29.00,WSW,248,2.9,2.9,32,0.00,CLR,OVC,0.00,WeatherDisplay:10.37,2013-08-21 00:30:00,
2013-08-20 17:35:00,88.0,53.6,29.00,WSW,248,3.5,3.5,31,0.00,CLR,OVC,0.00,WeatherDisplay:10.37,2013-08-21 00:35:00,
2013-08-20 17:40:00,87.8,53.4,29.00,SSW,202,3.8,3.8,31,0.00,CLR,OVC,0.00,WeatherDisplay:10.37,2013-08-21 00:40:00,
2013-08-20 17:45:00,88.0,53.6,29.00,South,180,2.3,2.3,31,0.00,CLR,OVC,0.00,WeatherDisplay:10.37,2013-08-21 00:45:00,
2013-08-20 17:50:00,88.0,53.6,29.00,SSW,202,2.2,2.2,31,0.00,CLR,OVC,0.00,WeatherDisplay:10.37,2013-08-21 00:50:00,
2013-08-20 17:55:00,86.9,52.6,29.00,West,270,4.6,4.6,31,0.00,CLR,OVC,0.00,WeatherDisplay:10.37,2013-08-21 00:55:00,
2013-08-20 18:00:00,86.7,51.6,29.00,SW,225,5.8,5.8,30,0.00,CLR,OVC,0.00,WeatherDisplay:10.37,2013-08-21 01:00:00,
2013-08-20 18:05:00,86.9,52.6,29.00,WSW,248,6.2,6.2,31,0.00,CLR,OVC,0.00,WeatherDisplay:10.37,2013-08-21 01:05:00,
2013-08-20 18:10:00,86.9,53.5,29.00,South,180,2.3,2.3,32,0.00,CLR,OVC,0.00,WeatherDisplay:10.37,2013-08-21 01:10:00,
2013-08-20 18:15:00,87.1,52.8,28.99,SSE,158,4.6,4.6,31,0.00,CLR,OVC,0.00,WeatherDisplay:10.37,2013-08-21 01:15:00,
2013-08-20 18:20:00,87.4,54.0,28.99,SSW,202,2.4,2.4,32,0.00,CLR,OVC,0.00,WeatherDisplay:10.37,2013-08-21 01:20:00,
2013-08-20 18:25:00,86.7,52.5,28.99,NW,315,2.3,3.3,31,0.00,CLR,OVC,0.00,WeatherDisplay:10.37,2013-08-21 01:25:00,
2013-08-20 18:30:00,86.0,51.0,28.99,SSW,202,5.4,5.4,30,0.00,CLR,OVC,0.00,WeatherDisplay:10.37,2013-08-21 01:30:00,
2013-08-20 18:35:00,85.8,52.5,28.99,ESE,112,2.3,2.3,32,0.00,CLR,OVC,0.00,WeatherDisplay:10.37,2013-08-21 01:35:00,
2013-08-20 18:40:00,86.2,52.9,28.98,SSE,158,1.2,1.2,32,0.00,CLR,OVC,0.00,WeatherDisplay:10.37,2013-08-21 01:40:00,
2013-08-20 18:45:00,86.7,52.5,28.98,SSW,202,2.3,2.3,31,0.00,CLR,OVC,0.00,WeatherDisplay:10.37,2013-08-21 01:45:00,
2013-08-20 18:50:00,87.1,51.9,28.98,West,270,6.2,6.2,30,0.00,CLR,OVC,0.00,WeatherDisplay:10.37,2013-08-21 01:50:00,
2013-08-20 18:55:00,85.5,51.4,28.98,NE,45,4.3,4.3,31,0.00,CLR,OVC,0.00,WeatherDisplay:10.37,2013-08-21 01:55:00,
2013-08-20 19:00:00,84.6,50.6,28.98,West,270,4.6,4.6,31,0.00,CLR,OVC,0.00,WeatherDisplay:10.37,2013-08-21 02:00:00,
2013-08-20 19:05:00,83.3,49.5,28.98,WSW,248,3.5,4.9,31,0.00,CLR,OVC,0.00,WeatherDisplay:10.37,2013-08-21 02:05:00,
2013-08-20 19:10:00,83.1,50.2,28.98,WSW,248,3.6,3.6,32,0.00,CLR,OVC,0.00,WeatherDisplay:10.37,2013-08-21 02:10:00,
2013-08-20 19:15:00,83.1,51.0,28.98,SSE,158,2.3,2.3,33,0.00,CLR,OVC,0.00,WeatherDisplay:10.37,2013-08-21 02:15:00,
2013-08-20 19:20:00,82.9,50.0,28.97,SSW,202,3.5,3.5,32,0.00,CLR,OVC,0.00,WeatherDisplay:10.37,2013-08-21 02:20:00,
2013-08-20 19:25:00,82.4,49.6,28.97,ENE,68,3.5,3.5,32,0.00,CLR,OVC,0.00,WeatherDisplay:10.37,2013-08-21 02:25:00,
2013-08-20 19:30:00,81.5,48.8,28.97,NNE,22,2.3,2.3,32,0.00,CLR,OVC,0.00,WeatherDisplay:10.37,2013-08-21 02:30:00,
2013-08-20 19:35:00,81.1,49.3,28.97,SE,135,3.5,3.5,33,0.00,CLR,OVC,0.00,WeatherDisplay:10.37,2013-08-21 02:35:00,
2013-08-20 19:40:00,80.1,47.5,28.97,NW,315,2.3,2.4,32,0.00,CLR,OVC,0.00,WeatherDisplay:10.37,2013-08-21 02:40:00,
2013-08-20 19:45:00,78.3,46.8,28.97,West,270,4.7,4.7,33,0.00,CLR,OVC,0.00,WeatherDisplay:10.37,2013-08-21 02:45:00,
2013-08-20 19:50:00,77.0,46.5,28.97,SW,225,3.5,3.5,34,0.00,CLR,OVC,0.00,WeatherDisplay:10.37,2013-08-21 02:50:00,
2013-08-20 19:55:00,76.3,46.6,28.97,West,270,2.4,2.4,35,0.00,CLR,OVC,0.00,WeatherDisplay:10.37,2013-08-21 02:55:00,
2013-08-20 20:00:00,74.8,46.1,28.97,SE,135,2.3,2.3,36,0.00,CLR,OVC,0.00,WeatherDisplay:10.37,2013-08-21 03:00:00,
2013-08-20 20:05:00,73.2,46.1,28.97,SSE,158,4.6,4.6,38,0.00,CLR,OVC,0.00,WeatherDisplay:10.37,2013-08-21 03:05:00,
2013-08-20 20:10:00,72.0,46.3,28.98,NNW,338,2.4,2.4,40,0.00,CLR,OVC,0.00,WeatherDisplay:10.37,2013-08-21 03:10:00,
2013-08-20 20:15:00,71.1,45.5,28.97,WSW,248,2.3,2.3,40,0.00,CLR,OVC,0.00,WeatherDisplay:10.37,2013-08-21 03:15:00,
2013-08-20 20:20:00,70.3,45.5,28.97,NNW,338,3.5,3.5,41,0.00,CLR,OVC,0.00,WeatherDisplay:10.37,2013-08-21 03:20:00,
2013-08-20 20:25:00,69.8,46.3,28.97,WSW,248,4.6,4.6,43,0.00,CLR,OVC,0.00,WeatherDisplay:10.37,2013-08-21 03:25:00,
2013-08-20 20:30:00,69.3,45.8,28.97,SSE,158,3.5,3.5,43,0.00,CLR,OVC,0.00,WeatherDisplay:10.37,2013-08-21 03:30:00,
2013-08-20 20:35:00,68.9,46.1,28.97,NNE,22,4.6,4.6,44,0.00,CLR,OVC,0.00,WeatherDisplay:10.37,2013-08-21 03:35:00,
2013-08-20 20:40:00,68.7,45.9,28.97,WSW,248,3.5,3.5,44,0.00,CLR,OVC,0.00,WeatherDisplay:10.37,2013-08-21 03:40:00,
2013-08-20 20:45:00,68.4,45.6,28.97,ESE,112,3.5,3.5,44,0.00,CLR,OVC,0.00,WeatherDisplay:10.37,2013-08-21 03:45:00,
2013-08-20 20:50:00,68.0,45.9,28.97,NE,45,4.6,4.6,45,0.00,CLR,OVC,0.00,WeatherDisplay:10.37,2013-08-21 03:50:00,
2013-08-20 20:55:00,68.0,45.9,28.97,SW,225,3.5,3.5,45,0.00,CLR,OVC,0.00,WeatherDisplay:10.37,2013-08-21 03:55:00,
2013-08-20 21:00:00,67.8,45.7,28.97,SE,135,8.1,8.1,45,0.00,CLR,OVC,0.00,WeatherDisplay:10.37,2013-08-21 04:00:00,
2013-08-20 21:01:00,67.8,45.7,28.97,West,270,8.1,8.1,45,0.00,CLR,OVC,0.00,WeatherDisplay:10.37,2013-08-21 04:01:00,
2013-08-20 21:06:00,67.6,45.5,28.97,SE,135,4.6,4.6,45,0.00,CLR,OVC,0.00,WeatherDisplay:10.37,2013-08-21 04:06:00,
2013-08-20 21:11:00,67.5,45.4,28.97,NE,45,4.6,4.6,45,0.00,CLR,OVC,0.00,WeatherDisplay:10.37,2013-08-21 04:11:00,
2013-08-20 21:16:00,67.3,45.8,28.97,West,270,4.6,4.6,46,0.00,CLR,OVC,0.00,WeatherDisplay:10.37,2013-08-21 04:16:00,
2013-08-20 21:21:00,67.3,45.8,28.97,NW,315,4.6,4.6,46,0.00,CLR,OVC,0.00,WeatherDisplay:10.37,2013-08-21 04:21:00,
2013-08-20 21:26:00,67.1,45.6,28.98,NW,315,5.8,5.8,46,0.00,CLR,OVC,0.00,WeatherDisplay:10.37,2013-08-21 04:26:00,
2013-08-20 21:31:00,67.1,45.6,28.98,ESE,112,2.3,2.3,46,0.00,CLR,OVC,0.00,WeatherDisplay:10.37,2013-08-21 04:31:00,
2013-08-20 21:36:00,66.9,45.5,28.98,WSW,248,3.5,3.5,46,0.00,CLR,OVC,0.00,WeatherDisplay:10.37,2013-08-21 04:36:00,
2013-08-20 21:41:00,66.7,45.3,28.98,WNW,292,6.9,6.9,46,0.00,CLR,OVC,0.00,WeatherDisplay:10.37,2013-08-21 04:41:00,
2013-08-20 21:46:00,66.7,45.3,28.98,South,180,5.8,5.8,46,0.00,CLR,OVC,0.00,WeatherDisplay:10.37,2013-08-21 04:46:00,
2013-08-20 21:51:00,66.4,45.5,28.98,WSW,248,4.6,4.6,47,0.00,CLR,OVC,0.00,WeatherDisplay:10.37,2013-08-21 04:51:00,
2013-08-20 21:56:00,66.0,45.2,28.98,ESE,112,6.2,6.2,47,0.00,CLR,OVC,0.00,WeatherDisplay:10.37,2013-08-21 04:56:00,
2013-08-20 22:01:00,65.8,45.0,28.98,WSW,248,3.5,3.5,47,0.00,CLR,OVC,0.00,WeatherDisplay:10.37,2013-08-21 05:01:00,
2013-08-20 22:06:00,65.8,45.6,28.98,SSW,202,3.5,3.5,48,0.00,CLR,OVC,0.00,WeatherDisplay:10.37,2013-08-21 05:06:00,
2013-08-20 22:11:00,65.7,45.4,28.98,NNW,338,6.9,6.9,48,0.00,CLR,OVC,0.00,WeatherDisplay:10.37,2013-08-21 05:11:00,
2013-08-20 22:16:00,65.3,45.1,28.98,WSW,248,3.5,3.5,48,0.00,CLR,OVC,0.00,WeatherDisplay:10.37,2013-08-21 05:16:00,
2013-08-20 22:21:00,65.1,45.5,28.98,WNW,292,3.5,3.5,49,0.00,CLR,OVC,0.00,WeatherDisplay:10.37,2013-08-21 05:21:00,
2013-08-20 22:27:00,64.9,45.3,28.99,SSW,202,2.3,2.3,49,0.00,CLR,OVC,0.00,WeatherDisplay:10.37,2013-08-21 05:27:00,
2013-08-20 22:32:00,64.6,45.5,28.98,West,270,5.8,5.8,50,0.00,CLR,OVC,0.00,WeatherDisplay:10.37,2013-08-21 05:32:00,
2013-08-20 22:37:00,64.4,45.9,28.98,WNW,292,2.3,2.3,51,0.00,CLR,OVC,0.00,WeatherDisplay:10.37,2013-08-21 05:37:00,
2013-08-20 22:42:00,64.2,45.7,28.98,NNW,338,3.6,3.6,51,0.00,CLR,OVC,0.00,WeatherDisplay:10.37,2013-08-21 05:42:00,
2013-08-20 22:47:00,64.0,46.1,28.98,WSW,248,3.5,3.5,52,0.00,CLR,OVC,0.00,WeatherDisplay:10.37,2013-08-21 05:47:00,
2013-08-20 22:52:00,63.9,46.4,28.98,SSW,202,2.6,2.6,53,0.00,CLR,OVC,0.00,WeatherDisplay:10.37,2013-08-21 05:52:00,
2013-08-20 22:57:00,63.9,46.4,28.97,SE,135,8.1,8.1,53,0.00,CLR,OVC,0.00,WeatherDisplay:10.37,2013-08-21 05:57:00,
2013-08-20 23:02:00,64.0,46.6,28.97,SW,225,6.9,6.9,53,0.00,CLR,OVC,0.00,WeatherDisplay:10.37,2013-08-21 06:02:00,
2013-08-20 23:07:00,63.9,46.4,28.97,SE,135,2.3,3.1,53,0.00,CLR,OVC,0.00,WeatherDisplay:10.37,2013-08-21 06:07:00,
2013-08-20 23:12:00,63.7,46.7,28.97,South,180,3.3,3.3,54,0.00,CLR,OVC,0.00,WeatherDisplay:10.37,2013-08-21 06:12:00,
2013-08-20 23:17:00,63.7,46.7,28.97,WNW,292,5.8,5.8,54,0.00,CLR,OVC,0.00,WeatherDisplay:10.37,2013-08-21 06:17:00,
2013-08-20 23:22:00,63.5,47.0,28.98,South,180,5.4,5.4,55,0.00,CLR,OVC,0.00,WeatherDisplay:10.37,2013-08-21 06:22:00,
2013-08-20 23:27:00,63.3,46.9,28.97,NNE,22,3.3,3.3,55,0.00,CLR,OVC,0.00,WeatherDisplay:10.37,2013-08-21 06:27:00,
2013-08-20 23:32:00,63.1,46.7,28.97,NW,315,4.0,4.0,55,0.00,CLR,OVC,0.00,WeatherDisplay:10.37,2013-08-21 06:32:00,
2013-08-20 23:37:00,63.1,46.7,28.97,South,180,2.4,2.4,55,0.00,CLR,OVC,0.00,WeatherDisplay:10.37,2013-08-21 06:37:00,
2013-08-20 23:42:00,63.0,47.0,28.97,NW,315,4.6,4.6,56,0.00,CLR,OVC,0.00,WeatherDisplay:10.37,2013-08-21 06:42:00,
2013-08-20 23:47:00,62.6,46.7,28.97,WNW,292,4.0,4.0,56,0.00,CLR,OVC,0.00,WeatherDisplay:10.37,2013-08-21 06:47:00,
2013-08-20 23:52:00,62.4,46.5,28.98,NNE,22,4.3,4.3,56,0.00,CLR,OVC,0.00,WeatherDisplay:10.37,2013-08-21 06:52:00,
2013-08-20 23:57:00,62.2,46.3,28.97,WNW,292,2.3,2.3,56,0.00,CLR,OVC,0.00,WeatherDisplay:10.37,2013-08-21 06:57:00,